Last 24 Hours

Thomas Mountain

10 Minute Data | America/Los_Angeles
as of 5/20/22 7:48 AM PDT
Date & Time Temp (°F) Dew Pt (°F) RH (%) Wind Spd (mph) Wind Dir (°) Wind Gust (mph) Wind Gst Dir (°) Daily Max Temp (°F) Daily Min Temp (°F)
5/20/22 - 0740 48.3 44.8 87 2.6 S | 169 5.3 ESE | 117 58.4 42.5
5/20/22 - 0730 47.0 46.2 97 2.2 ESE | 104 5.3 E | 99 58.4 42.5
5/20/22 - 0720 45.5 45.1 98 2.4 S | 172 5.2 SSW | 202 58.4 42.5
5/20/22 - 0710 45.6 45.3 99 2.3 ESE | 108 6.3 ESE | 107 58.4 42.5
5/20/22 - 0700 44.2 43.9 99 2.4 ENE | 74 5.8 E | 85 58.4 42.5
5/20/22 - 0650 43.9 43.5 99 2.8 NE | 44 5.6 NNE | 30 58.4 42.5
5/20/22 - 0640 43.7 43.3 98 5.9 NNE | 22 9.4 NNE | 19 58.4 42.5
5/20/22 - 0630 43.4 42.9 98 7.3 NNE | 22 10.8 NNE | 22 58.4 42.5
5/20/22 - 0620 43.3 42.7 98 6.2 NNE | 30 9.4 NNE | 32 58.4 42.5
5/20/22 - 0610 42.6 41.7 96 6.4 NE | 44 9.9 NNE | 27 58.4 42.5
5/20/22 - 0600 42.8 41.6 95 2.2 E | 88 4.7 ENE | 57 58.4 42.5
5/20/22 - 0550 43.2 41.5 94 2.8 SE | 130 5.1 ESE | 120 58.4 42.7
5/20/22 - 0540 44.4 40.9 88 2.1 SSE | 157 4.4 S | 169 58.4 42.7
5/20/22 - 0530 45.5 40.7 83 1.3 SSE | 148 3.5 SE | 130 58.4 42.7
5/20/22 - 0520 45.0 40.2 83 1.4 E | 80 4.0 NNE | 14 58.4 42.7
5/20/22 - 0510 44.7 40.2 84 1.7 NNE | 24 4.5 NNW | 338 58.4 42.7
5/20/22 - 0500 43.9 41.0 89 2.8 WSW | 244 6.2 WNW | 291 58.4 42.7
5/20/22 - 0450 43.1 41.2 93 4.9 WSW | 253 7.3 WSW | 248 58.4 42.7
5/20/22 - 0440 45.1 40.2 83 5.0 WSW | 251 7.1 W | 269 58.4 43.6
5/20/22 - 0430 47.4 38.9 72 5.9 W | 271 8.6 W | 264 58.4 46.4
5/20/22 - 0420 49.0 37.9 66 5.3 WNW | 294 10.1 WNW | 283 58.4 47.1
5/20/22 - 0410 48.7 38.0 66 5.6 WNW | 300 9.2 WNW | 286 58.4 47.1
5/20/22 - 0400 47.5 38.7 71 4.7 WNW | 293 7.6 WNW | 289 58.4 47.1
5/20/22 - 0350 49.6 38.0 64 4.3 WNW | 290 7.9 WNW | 298 58.4 47.5
5/20/22 - 0340 51.4 36.5 57 4.7 NW | 318 11.5 NNW | 328 58.4 50.7
5/20/22 - 0330 53.5 35.7 51 5.7 WNW | 282 12.6 W | 265 58.4 52.0
5/20/22 - 0320 53.9 35.6 50 3.9 NW | 304 10.4 WNW | 291 58.4 52.0
5/20/22 - 0310 53.7 35.9 51 4.2 NNW | 330 6.7 NW | 308 58.4 52.0
5/20/22 - 0300 53.4 36.4 53 3.1 NW | 325 8.8 W | 266 58.4 52.0
5/20/22 - 0250 53.4 37.8 55 3.2 NNE | 14 6.7 N | 11 58.4 52.0
5/20/22 - 0240 56.3 35.6 46 3.1 NNW | 340 8.8 NW | 304 58.4 54.0
5/20/22 - 0230 57.1 35.4 44 7.4 WNW | 288 14.4 WNW | 289 58.4 54.0
5/20/22 - 0220 57.5 36.0 44 7.2 WNW | 289 12.1 WNW | 285 58.4 54.0
5/20/22 - 0210 57.8 36.3 44 7.5 WNW | 295 15.7 NW | 312 58.4 54.0
5/20/22 - 0200 58.2 36.3 44 9.0 W | 279 16.9 W | 266 58.4 54.0
5/20/22 - 0150 57.6 36.5 45 7.1 WNW | 287 17.8 WNW | 285 58.2 54.0
5/20/22 - 0140 57.7 36.7 45 5.4 NW | 305 12.6 WNW | 294 58.2 54.0
5/20/22 - 0130 57.9 37.0 46 7.4 WNW | 300 16.5 NW | 306 58.2 54.0
5/20/22 - 0120 55.8 37.2 50 6.8 WNW | 292 13.7 W | 273 57.7 54.0
5/20/22 - 0110 55.0 37.4 52 5.9 N | 358 8.9 NNW | 342 56.9 54.2
5/20/22 - 0100 56.5 37.1 48 3.8 NW | 309 8.5 W | 270 79.8 53.3
5/20/22 - 0050 54.3 38.0 54 3.9 N | 357 7.4 NNE | 20 79.8 53.3
5/20/22 - 0040 56.4 37.7 50 3.8 N | 354 9.5 W | 280 79.8 53.3
5/20/22 - 0030 57.9 36.8 45 6.0 NW | 307 13.4 W | 263 79.8 53.3
5/20/22 - 0020 56.8 37.8 49 3.7 NNW | 328 8.6 NW | 306 79.8 53.3
5/20/22 - 0010 56.3 37.7 50 5.3 NW | 324 13.1 NW | 308 79.8 53.3
5/20/22 - 0000 53.6 40.8 62 6.1 N | 351 8.5 N | 11 79.8 53.3
5/19/22 - 2350 54.2 41.1 61 5.1 N | 3 9.4 N | 6 79.8 53.7
5/19/22 - 2340 58.0 40.0 52 5.1 N | 355 10.0 W | 281 79.8 54.2
5/19/22 - 2330 61.9 37.2 40 9.4 W | 278 16.3 WNW | 283 79.8 54.2
5/19/22 - 2320 62.6 36.8 38 11.1 W | 277 16.0 W | 280 79.8 54.2
5/19/22 - 2310 63.3 36.2 36 11.4 W | 278 16.6 W | 272 79.8 54.2
5/19/22 - 2300 62.9 36.0 37 10.6 WNW | 287 17.6 W | 275 79.8 54.2
5/19/22 - 2250 60.7 37.1 41 8.4 WNW | 289 15.2 WNW | 290 79.8 54.2
5/19/22 - 2240 59.1 38.9 47 6.1 W | 280 12.4 WNW | 294 79.8 54.2
5/19/22 - 2230 56.0 42.8 61 5.2 NNW | 334 9.1 WNW | 288 79.8 54.2
5/19/22 - 2220 54.7 44.6 69 5.0 NNW | 345 8.1 N | 351 79.8 54.2
5/19/22 - 2210 56.9 43.0 60 2.6 ENE | 69 6.8 NNE | 18 79.8 55.0
5/19/22 - 2200 59.0 39.4 48 2.1 NW | 319 4.3 E | 80 79.8 57.2
5/19/22 - 2150 57.9 41.4 54 2.4 NNW | 344 5.3 N | 350 79.8 57.2
5/19/22 - 2140 58.7 42.1 54 4.6 WNW | 297 8.1 WNW | 294 79.8 58.3
5/19/22 - 2130 59.3 40.7 50 6.5 WNW | 283 12.1 W | 265 79.8 58.4
5/19/22 - 2120 59.0 41.3 52 1.2 NNW | 329 5.0 SSW | 207 79.8 58.5
5/19/22 - 2110 61.0 37.3 41 2.3 SW | 227 6.9 WSW | 249 79.8 60.1
5/19/22 - 2100 62.3 33.6 34 4.1 WSW | 242 9.4 WSW | 256 79.8 60.8
5/19/22 - 2050 63.0 31.6 31 5.4 WSW | 258 9.4 W | 275 79.8 60.8
5/19/22 - 2040 62.8 32.7 32 3.7 WSW | 246 7.1 W | 262 79.8 60.8
5/19/22 - 2030 62.4 32.9 33 3.4 W | 274 7.5 WNW | 286 79.8 60.8
5/19/22 - 2020 61.2 42.6 51 0.6 NNE | 28 2.3 NNE | 25 79.8 60.8
5/19/22 - 2010 61.3 42.9 51 2.2 W | 272 6.1 SW | 223 79.8 60.8
5/19/22 - 2000 62.9 41.1 45 4.2 WSW | 247 6.8 WNW | 287 79.8 61.6
5/19/22 - 1950 63.5 39.9 42 4.0 NW | 306 8.9 NW | 311 79.8 61.9
5/19/22 - 1940 63.6 45.3 51 4.0 WNW | 302 6.3 WNW | 294 79.8 61.9
5/19/22 - 1930 64.4 45.3 50 6.7 WNW | 285 11.3 WNW | 288 79.8 61.9
5/19/22 - 1920 65.6 41.7 42 6.3 W | 275 10.9 WNW | 283 79.8 61.9
5/19/22 - 1910 66.2 39.6 38 5.3 WNW | 292 9.9 W | 267 79.8 61.9
5/19/22 - 1900 67.1 38.3 35 5.8 WNW | 286 13.5 WNW | 288 79.8 61.9
5/19/22 - 1850 67.4 40.9 38 6.1 WSW | 252 11.2 W | 259 79.8 61.9
5/19/22 - 1840 67.7 42.8 40 7.9 WSW | 253 12.4 WSW | 250 79.8 61.9
5/19/22 - 1830 68.0 44.2 42 8.0 W | 264 13.4 WSW | 252 79.8 61.9
5/19/22 - 1820 68.6 42.9 39 11.2 W | 260 17.7 WSW | 251 79.8 61.9
5/19/22 - 1810 69.8 41.6 36 10.3 WSW | 256 17.2 WSW | 249 79.8 61.9
5/19/22 - 1800 70.6 39.1 32 10.2 W | 262 16.3 WSW | 245 79.8 61.9
5/19/22 - 1750 71.5 37.4 29 10.6 WSW | 254 18.3 WSW | 256 79.8 61.9
5/19/22 - 1740 71.8 35.2 26 10.1 WSW | 258 18.4 WSW | 253 79.8 61.9
5/19/22 - 1730 71.7 36.0 27 11.2 WSW | 252 17.0 WSW | 250 79.8 61.9
5/19/22 - 1720 71.6 35.8 27 12.0 WSW | 251 20.2 W | 276 79.8 61.9
5/19/22 - 1710 71.4 36.6 28 12.3 WSW | 256 21.4 WSW | 243 79.8 61.9
5/19/22 - 1700 71.9 37.6 29 14.2 WSW | 251 21.6 W | 260 79.8 61.9
5/19/22 - 1650 72.1 38.4 29 13.9 WSW | 256 21.3 W | 276 79.8 61.9
5/19/22 - 1640 72.2 38.6 29 13.8 W | 261 20.9 W | 261 79.8 61.9
5/19/22 - 1630 72.0 39.3 30 14.9 WSW | 258 23.9 WSW | 256 79.8 61.9
5/19/22 - 1620 72.6 41.3 32 15.9 W | 259 23.5 WSW | 245 79.8 61.9
5/19/22 - 1610 72.6 41.9 33 16.2 W | 260 27.9 WSW | 251 79.8 61.9
5/19/22 - 1600 72.7 42.0 33 17.2 WSW | 255 26.4 WSW | 251 79.8 61.9
5/19/22 - 1550 73.5 42.6 33 16.6 WSW | 252 26.0 W | 260 79.8 61.9
5/19/22 - 1540 73.8 42.3 32 15.1 WSW | 250 25.1 W | 260 79.8 61.9
5/19/22 - 1530 74.6 42.4 32 14.7 WSW | 258 23.8 WSW | 250 79.8 61.9
5/19/22 - 1520 74.9 42.8 32 15.0 WSW | 248 23.3 WSW | 247 79.8 61.9
5/19/22 - 1510 74.7 43.1 32 14.5 WSW | 252 22.6 WSW | 245 79.8 61.9
5/19/22 - 1500 74.5 43.6 33 15.2 WSW | 246 24.6 WSW | 242 79.8 61.9
5/19/22 - 1450 74.8 44.7 34 16.6 WSW | 245 25.4 WSW | 241 79.8 61.9
5/19/22 - 1440 75.2 45.8 35 14.9 WSW | 245 23.5 WSW | 239 79.8 61.9
5/19/22 - 1430 74.9 46.0 36 14.8 WSW | 246 22.9 WSW | 252 79.8 61.9
5/19/22 - 1420 75.1 46.0 36 14.1 WSW | 245 21.5 WSW | 242 79.8 61.9
5/19/22 - 1410 75.3 46.5 36 14.4 WSW | 242 20.1 W | 259 79.8 61.9
5/19/22 - 1400 75.8 46.6 35 14.6 WSW | 242 21.6 WSW | 249 79.8 61.9
5/19/22 - 1350 76.0 46.7 35 13.7 WSW | 240 21.0 WSW | 248 79.8 61.9
5/19/22 - 1340 75.9 45.8 34 14.0 WSW | 246 21.7 WSW | 252 79.8 61.9
5/19/22 - 1330 76.5 46.7 35 14.0 WSW | 242 22.9 WSW | 249 79.8 61.9
5/19/22 - 1320 76.6 45.0 32 12.4 WSW | 245 20.6 WSW | 246 79.8 61.9
5/19/22 - 1310 77.8 43.1 29 11.8 SW | 236 18.5 SSW | 206 79.8 61.9
5/19/22 - 1300 76.9 42.8 30 13.1 WSW | 244 20.7 WSW | 242 79.8 61.9
5/19/22 - 1250 77.2 42.2 29 13.3 WSW | 238 20.4 WSW | 247 79.8 61.9
5/19/22 - 1240 77.6 38.5 24 12.6 SW | 224 23.4 SSW | 213 79.8 61.9
5/19/22 - 1230 76.9 33.1 20 9.7 SW | 224 19.4 SW | 222 79.8 61.9
5/19/22 - 1220 77.2 33.9 21 13.2 SW | 222 19.6 SSW | 203 79.8 61.9
5/19/22 - 1210 77.4 33.9 21 14.8 SW | 231 21.2 SW | 226 79.8 61.9
5/19/22 - 1200 78.8 34.6 20 13.1 SW | 229 21.3 SW | 226 79.8 61.9
5/19/22 - 1150 78.4 34.4 20 13.4 SW | 230 20.2 SSW | 209 79.8 61.9
5/19/22 - 1140 78.3 34.1 20 11.8 WSW | 238 17.7 WSW | 258 79.8 61.9
5/19/22 - 1130 77.1 34.0 21 14.3 WSW | 246 21.7 WSW | 245 79.8 61.9
5/19/22 - 1120 77.8 33.8 20 12.8 W | 262 22.3 SW | 231 79.8 61.9
5/19/22 - 1110 78.3 33.7 20 8.5 W | 281 15.8 W | 265 79.8 61.9
5/19/22 - 1100 78.3 30.8 18 4.3 N | 10 12.4 WNW | 293 79.7 61.9
5/19/22 - 1050 78.1 31.4 18 3.4 SW | 233 8.9 WSW | 242 79.3 61.9
5/19/22 - 1040 77.8 27.8 16 3.2 ESE | 116 9.8 NE | 45 79.0 61.9
5/19/22 - 1030 77.3 27.3 16 5.5 E | 87 11.3 E | 82 78.0 61.9
5/19/22 - 1020 77.1 27.6 16 8.5 E | 80 14.2 ENE | 72 78.0 61.9
5/19/22 - 1010 76.6 27.7 16 8.9 E | 85 15.0 ENE | 74 77.4 61.9
5/19/22 - 1000 76.5 28.2 17 8.0 E | 87 13.1 E | 79 77.0 61.9
5/19/22 - 0950 76.2 28.1 17 7.6 E | 85 12.6 ENE | 63 76.8 61.9
5/19/22 - 0940 75.4 28.1 17 8.5 ENE | 68 12.8 E | 79 76.7 61.9
5/19/22 - 0930 75.6 27.6 17 8.0 ENE | 74 14.5 E | 84 76.7 61.9
5/19/22 - 0920 75.5 28.2 17 8.2 E | 84 14.4 ESE | 103 76.7 61.9
5/19/22 - 0910 75.5 29.3 18 7.6 ENE | 75 14.1 NE | 50 76.7 61.9
5/19/22 - 0900 74.7 30.9 20 8.5 E | 84 15.0 E | 82 75.6 61.9
5/19/22 - 0850 73.9 31.5 21 8.6 E | 82 13.1 E | 80 74.7 61.9
5/19/22 - 0840 74.1 31.8 21 6.7 ENE | 73 11.0 ENE | 59 74.7 61.9
5/19/22 - 0830 73.1 32.3 22 6.5 ENE | 63 8.9 NE | 52 73.8 61.9
5/19/22 - 0820 72.8 32.6 23 6.3 ENE | 74 8.8 ENE | 78 73.4 61.9
5/19/22 - 0810 73.0 33.6 23 5.3 ENE | 72 8.2 ENE | 69 73.4 61.9
5/19/22 - 0800 72.6 33.2 23 5.1 ENE | 63 7.8 ENE | 75 72.9 61.9
5/19/22 - 0750 71.7 33.9 25 4.9 ENE | 73 7.5 ENE | 71 72.3 61.9
5/19/22 - 0740 71.1 34.2 26 5.2 ENE | 62 8.6 ENE | 66 71.5 61.9
Max 78.8 46.7 99 17.2 - 27.9 - 79.8 61.9
Avg 63.9 38.4 44 7.7 - 13.3 - - -
Min 42.6 27.3 16 0.6 - 2.3 - 56.9 42.5